Time;durP1;ratioP1;P1;durP2;ratioP2;P2;SDS_P1;SDS_P2;PMS_P1;PMS_P2;Temp;Humidity;BMP_temperature;BMP_pressure;BME280_temperature;BME280_humidity;BME280_pressure;Samples;Min_cycle;Max_cycle;Signal;HPM_P1;HPM_P2
2022/08/18 00:00:43;;;;;;;2.67;2.47;;;21.70;59.60;21.80;100084.00;;;;4957747;28;87726;-63
2022/08/18 00:03:12;;;;;;;3.42;2.75;;;21.70;59.80;21.80;100083.00;;;;4972372;28;98428;-63
2022/08/18 00:05:38;;;;;;;3.83;2.80;;;21.60;59.90;21.70;100075.00;;;;4957068;28;88763;-63
2022/08/18 00:08:05;;;;;;;5.25;2.92;;;21.60;60.10;21.70;100076.00;;;;4956394;28;110855;-63
2022/08/18 00:10:32;;;;;;;2.65;2.40;;;21.50;60.30;21.70;100081.00;;;;4957459;28;87827;-63
2022/08/18 00:12:58;;;;;;;4.20;3.10;;;21.50;60.70;21.60;100069.00;;;;4956249;28;107598;-63
2022/08/18 00:15:24;;;;;;;5.90;2.42;;;21.40;60.70;21.60;100076.00;;;;4956640;28;88960;-63
2022/08/18 00:17:50;;;;;;;3.50;2.65;;;21.40;61.80;21.50;100067.00;;;;4956524;28;99963;-63
2022/08/18 00:20:22;;;;;;;4.93;2.83;;;21.30;61.20;21.50;100075.00;;;;4956677;28;89218;-63
2022/08/18 00:22:48;;;;;;;4.38;2.88;;;21.30;61.50;21.40;100058.00;;;;4956963;28;88344;-63
2022/08/18 00:25:17;;;;;;;7.22;3.20;;;21.30;61.70;21.40;100060.00;;;;4956860;28;88840;-62
2022/08/18 00:27:43;;;;;;;2.70;2.42;;;21.20;61.70;21.40;100063.00;;;;4956200;28;99065;-63
2022/08/18 00:30:18;;;;;;;3.00;2.47;;;21.20;62.00;21.30;100059.00;;;;4956926;28;88022;-62
2022/08/18 00:32:50;;;;;;;2.95;2.70;;;21.20;62.10;21.20;100060.00;;;;4956934;28;87518;-63
2022/08/18 00:35:25;;;;;;;3.45;2.95;;;21.10;62.60;21.10;100057.00;;;;4956702;28;88303;-62
2022/08/18 00:37:54;;;;;;;4.40;2.70;;;21.00;62.90;21.10;100059.00;;;;4957484;28;88082;-62
2022/08/18 00:40:24;;;;;;;3.95;3.33;;;20.90;63.00;21.10;100064.00;;;;4956606;28;88758;-62
2022/08/18 00:42:55;;;;;;;6.00;3.25;;;20.90;63.20;21.00;100068.00;;;;4956375;28;87853;-63
2022/08/18 00:45:27;;;;;;;3.97;2.53;;;20.90;63.30;21.10;100060.00;;;;4953886;28;93882;-62
2022/08/18 00:47:53;;;;;;;3.53;2.13;;;20.90;63.30;21.10;100078.00;;;;4957248;28;87758;-62
2022/08/18 00:50:39;;;;;;;6.32;3.03;;;20.90;63.40;21.10;100062.00;;;;4956935;28;87755;-62
2022/08/18 00:53:19;;;;;;;3.63;2.85;;;20.90;63.50;21.10;100066.00;;;;4970688;28;101702;-62
2022/08/18 00:55:47;;;;;;;5.68;2.80;;;20.90;63.60;21.10;100069.00;;;;4953508;28;108771;-62
2022/08/18 00:58:20;;;;;;;3.60;2.45;;;20.90;63.60;21.10;100065.00;;;;4957066;28;87168;-62
2022/08/18 01:00:49;;;;;;;3.65;2.70;;;20.90;63.60;21.00;100064.00;;;;4970928;28;87846;-62
2022/08/18 01:03:18;;;;;;;2.50;2.30;;;20.80;63.60;21.00;100068.00;;;;4971110;28;89211;-63
2022/08/18 01:06:03;;;;;;;2.97;2.67;;;20.90;63.80;21.00;100068.00;;;;4955899;28;92163;-62
2022/08/18 01:08:29;;;;;;;2.08;1.98;;;20.80;63.80;21.10;100058.00;;;;4954732;28;87898;-62
2022/08/18 01:10:57;;;;;;;3.25;2.55;;;20.90;63.90;21.10;100064.00;;;;4956840;28;87703;-63
2022/08/18 01:13:28;;;;;;;3.47;2.92;;;20.90;64.90;21.00;100065.00;;;;4953665;28;108517;-63
2022/08/18 01:15:54;;;;;;;6.75;2.78;;;20.90;64.40;21.00;100079.00;;;;4970048;28;88341;-62
2022/08/18 01:24:06;;;;;;;3.35;2.72;;;20.70;65.00;20.90;100076.00;;;;4954835;28;87249;-62
2022/08/18 01:26:36;;;;;;;2.92;2.72;;;20.70;65.20;20.90;100070.00;;;;4955755;28;96318;-62
2022/08/18 01:29:10;;;;;;;4.25;3.30;;;20.70;65.40;20.80;100068.00;;;;4956178;28;101510;-62
2022/08/18 01:31:41;;;;;;;3.20;2.30;;;20.70;65.80;20.80;100070.00;;;;4955465;28;88747;-62
2022/08/18 01:34:09;;;;;;;3.00;2.70;;;20.60;65.90;20.80;100076.00;;;;4955865;28;88082;-62
2022/08/18 01:36:39;;;;;;;5.53;2.80;;;20.60;66.10;20.80;100081.00;;;;4954889;28;105868;-62
2022/08/18 01:39:09;;;;;;;3.28;2.97;;;20.60;66.40;20.70;100082.00;;;;4953326;28;87922;-62
2022/08/18 01:41:35;;;;;;;3.58;3.10;;;20.60;66.70;20.70;100078.00;;;;4956106;28;87691;-62
2022/08/18 01:44:01;;;;;;;5.20;3.30;;;20.50;66.80;20.70;100081.00;;;;4954228;28;116877;-62
2022/08/18 01:46:30;;;;;;;5.47;2.92;;;20.50;67.00;20.60;100085.00;;;;4952396;28;87862;-62
2022/08/18 01:48:59;;;;;;;2.67;2.45;;;20.50;67.30;20.60;100080.00;;;;4954786;28;87976;-62
2022/08/18 01:51:31;;;;;;;2.65;2.45;;;20.40;67.30;20.60;100080.00;;;;4956091;28;87948;-62
2022/08/18 01:53:58;;;;;;;3.25;2.35;;;20.40;67.60;20.60;100081.00;;;;4955130;28;88852;-62
2022/08/18 01:56:28;;;;;;;2.60;2.40;;;20.40;67.80;20.60;100063.00;;;;4954293;28;108016;-62
2022/08/18 01:58:54;;;;;;;3.88;3.05;;;20.40;68.00;20.60;100076.00;;;;4955957;28;87682;-62
2022/08/18 02:01:22;;;;;;;8.23;2.60;;;20.40;68.30;20.50;100066.00;;;;4955801;28;89382;-62
2022/08/18 02:03:54;;;;;;;3.10;2.80;;;20.40;68.30;20.50;100063.00;;;;4955138;28;88842;-63
2022/08/18 02:06:21;;;;;;;3.55;2.42;;;20.40;68.50;20.50;100070.00;;;;4955385;28;105481;-62
2022/08/18 02:08:47;;;;;;;4.10;2.95;;;20.40;68.70;20.50;100068.00;;;;4954339;28;110665;-62
2022/08/18 02:11:14;;;;;;;3.78;2.65;;;20.40;68.90;20.50;100076.00;;;;4955081;28;107672;-62
2022/08/18 02:13:40;;;;;;;2.90;2.42;;;20.30;69.20;20.50;100070.00;;;;4955306;28;100979;-63
2022/08/18 02:16:06;;;;;;;2.65;2.45;;;20.30;69.60;20.40;100063.00;;;;4956406;28;87514;-62
2022/08/18 02:18:36;;;;;;;5.95;2.25;;;20.30;70.10;20.40;100057.00;;;;4955596;28;87867;-62
2022/08/18 02:21:16;;;;;;;5.25;2.92;;;20.20;70.50;20.30;100073.00;;;;4954985;28;88645;-62
2022/08/18 02:23:43;;;;;;;2.95;2.45;;;20.20;71.10;20.30;100063.00;;;;4954715;28;87799;-62
2022/08/18 02:26:14;;;;;;;4.03;3.63;;;20.10;71.40;20.20;100068.00;;;;4955153;28;89012;-62
2022/08/18 02:28:40;;;;;;;3.38;3.05;;;20.10;71.90;20.10;100062.00;;;;4953164;28;87878;-63
2022/08/18 02:31:14;;;;;;;3.30;2.80;;;20.00;72.30;20.10;100063.00;;;;4955802;28;88055;-62
2022/08/18 02:33:41;;;;;;;4.38;2.55;;;20.00;73.00;20.10;100063.00;;;;4955267;28;89185;-63
2022/08/18 02:36:08;;;;;;;4.38;3.15;;;19.90;73.10;20.10;100053.00;;;;4955081;28;87654;-65
2022/08/18 02:38:34;;;;;;;4.50;2.75;;;19.90;73.50;20.10;100050.00;;;;4955413;28;87038;-63
2022/08/18 02:41:05;;;;;;;3.13;2.65;;;19.90;73.60;20.00;100061.00;;;;4955470;28;87549;-62
2022/08/18 02:43:31;;;;;;;4.07;2.40;;;19.90;74.80;20.00;100047.00;;;;4955009;28;88183;-63
2022/08/18 02:45:57;;;;;;;3.67;2.70;;;19.90;74.10;20.00;100049.00;;;;4954441;28;117637;-62
2022/08/18 02:48:34;;;;;;;3.65;3.17;;;19.90;74.30;20.00;100047.00;;;;4967971;28;87532;-62
2022/08/18 02:51:14;;;;;;;3.83;2.88;;;19.90;74.40;20.00;100051.00;;;;4973695;28;87824;-63
2022/08/18 02:53:43;;;;;;;5.82;2.85;;;19.90;74.60;20.00;100060.00;;;;4958179;28;88246;-63
2022/08/18 02:56:22;;;;;;;5.15;2.97;;;19.80;74.70;20.00;100053.00;;;;4957838;28;102171;-63
2022/08/18 02:59:10;;;;;;;4.70;2.45;;;19.90;74.80;20.00;100054.00;;;;4958113;28;87729;-63
2022/08/18 03:01:38;;;;;;;4.28;3.15;;;19.80;75.00;20.00;100046.00;;;;4958598;28;87845;-63
2022/08/18 03:04:07;;;;;;;2.33;2.13;;;19.80;75.10;20.00;100046.00;;;;4958642;28;87485;-63
2022/08/18 03:06:35;;;;;;;4.00;3.05;;;19.80;75.10;20.00;100043.00;;;;4958350;28;88029;-65
2022/08/18 03:09:02;;;;;;;4.45;2.95;;;19.80;75.10;20.00;100045.00;;;;4958308;28;87800;-65
2022/08/18 03:11:28;;;;;;;2.90;2.55;;;19.80;75.10;20.00;100038.00;;;;4958386;28;88706;-64
2022/08/18 03:13:55;;;;;;;5.75;2.95;;;19.80;75.10;20.00;100027.00;;;;4955504;28;111982;-65
2022/08/18 03:16:23;;;;;;;5.15;3.20;;;19.80;75.30;20.00;100039.00;;;;4958202;28;105270;-64
2022/08/18 03:18:50;;;;;;;4.65;2.67;;;19.80;75.60;19.90;100032.00;;;;4958092;28;87411;-64
2022/08/18 03:21:21;;;;;;;3.97;3.00;;;19.80;76.00;19.90;100026.00;;;;4958650;28;87567;-65
2022/08/18 03:23:50;;;;;;;4.05;3.03;;;19.80;76.50;19.90;100031.00;;;;4957874;28;88559;-62
2022/08/18 03:26:18;;;;;;;4.03;2.90;;;19.70;76.90;19.80;100031.00;;;;4958365;28;87753;-64
2022/08/18 03:28:48;;;;;;;4.85;2.38;;;19.70;77.40;19.80;100030.00;;;;4957971;28;87096;-64
2022/08/18 03:31:15;;;;;;;4.78;3.40;;;19.60;77.80;19.70;100027.00;;;;4957570;28;87746;-65
2022/08/18 03:33:42;;;;;;;2.67;2.47;;;19.60;78.00;19.70;100030.00;;;;4957455;28;88978;-63
2022/08/18 03:36:12;;;;;;;4.38;2.58;;;19.60;78.20;19.70;100029.00;;;;4957795;28;91443;-63
2022/08/18 03:38:39;;;;;;;3.28;2.47;;;19.60;78.70;19.70;100036.00;;;;4957263;28;87624;-63
2022/08/18 03:41:07;;;;;;;3.28;2.97;;;19.50;78.90;19.60;100030.00;;;;4958218;28;98334;-63
2022/08/18 03:43:34;;;;;;;3.20;2.50;;;19.50;79.00;19.50;100029.00;;;;4957759;28;89009;-63
2022/08/18 03:46:05;;;;;;;4.20;2.90;;;19.40;79.40;19.50;100032.00;;;;4957828;28;87841;-63
2022/08/18 03:48:32;;;;;;;4.80;3.30;;;19.30;80.10;19.40;100036.00;;;;4955003;28;87876;-63
2022/08/18 03:51:12;;;;;;;4.05;3.08;;;19.20;79.50;19.30;100036.00;;;;4958390;28;87776;-63
2022/08/18 03:53:38;;;;;;;3.95;3.03;;;19.20;79.90;19.20;100040.00;;;;4957706;28;87473;-63
2022/08/18 03:56:14;;;;;;;3.22;2.85;;;19.10;79.90;19.10;100029.00;;;;4957570;28;87580;-63
2022/08/18 03:58:44;;;;;;;4.10;3.47;;;18.90;80.00;19.10;100049.00;;;;4957838;28;87676;-63
2022/08/18 04:01:14;;;;;;;3.53;3.17;;;18.90;80.40;19.00;100044.00;;;;4956986;28;88995;-63
2022/08/18 04:03:42;;;;;;;4.30;3.72;;;18.90;80.50;19.00;100035.00;;;;4958912;28;88126;-63
2022/08/18 04:06:15;;;;;;;4.30;2.83;;;18.80;80.80;18.90;100036.00;;;;4957542;28;89076;-63
2022/08/18 04:08:40;;;;;;;4.35;2.67;;;18.80;81.10;18.90;100038.00;;;;4961353;28;87594;-63
2022/08/18 04:11:06;;;;;;;4.43;3.40;;;18.70;81.50;18.90;100033.00;;;;4956769;28;108545;-63
2022/08/18 04:13:35;;;;;;;3.38;2.42;;;18.70;82.60;18.90;100044.00;;;;4957005;28;87975;-63
2022/08/18 04:16:00;;;;;;;3.88;3.30;;;18.70;82.30;18.80;100040.00;;;;4957121;28;87908;-63
2022/08/18 04:18:27;;;;;;;2.67;2.45;;;18.70;82.60;18.80;100046.00;;;;4956421;28;111174;-62
2022/08/18 04:20:53;;;;;;;3.17;2.88;;;18.70;82.90;18.80;100043.00;;;;4957747;28;87657;-62
2022/08/18 04:23:20;;;;;;;4.57;3.65;;;18.60;83.00;18.80;100030.00;;;;4956299;28;89164;-62
2022/08/18 04:25:55;;;;;;;6.78;3.35;;;18.60;83.30;18.80;100035.00;;;;4956393;28;88761;-63
2022/08/18 04:28:21;;;;;;;3.58;3.20;;;18.60;83.30;18.80;100043.00;;;;4956681;28;87733;-62
2022/08/18 04:30:47;;;;;;;5.20;3.38;;;18.70;83.30;18.90;100039.00;;;;4956383;28;107833;-65
2022/08/18 04:33:12;;;;;;;4.03;3.47;;;18.70;83.50;18.90;100040.00;;;;4957191;28;89151;-64
2022/08/18 04:35:38;;;;;;;6.13;3.28;;;18.70;83.50;19.00;100036.00;;;;4956595;28;117334;-64
2022/08/18 04:38:06;;;;;;;2.95;2.58;;;18.80;83.50;19.00;100035.00;;;;4954482;28;88166;-64
2022/08/18 04:40:32;;;;;;;3.50;3.15;;;18.80;83.40;19.10;100037.00;;;;4942885;28;87865;-65
2022/08/18 04:43:00;;;;;;;3.65;3.17;;;18.90;83.40;19.10;100053.00;;;;4953598;28;88210;-64
2022/08/18 04:45:27;;;;;;;4.32;2.95;;;18.90;83.30;19.10;100052.00;;;;4953481;28;87826;-64
2022/08/18 04:47:52;;;;;;;4.38;3.55;;;18.90;83.30;19.20;100059.00;;;;4950852;28;90245;-65
2022/08/18 04:50:19;;;;;;;3.55;3.25;;;19.00;83.30;19.20;100058.00;;;;4945728;28;88766;-64
2022/08/18 04:55:29;;;;;;;3.28;2.83;;;19.10;83.40;19.30;100058.00;;;;4955564;28;87847;-64
2022/08/18 04:57:55;;;;;;;2.90;2.63;;;19.10;83.30;19.40;100073.00;;;;4955290;28;109158;-65
2022/08/18 05:00:21;;;;;;;3.35;2.60;;;19.10;83.20;19.40;100070.00;;;;4956338;28;88421;-64
2022/08/18 05:02:47;;;;;;;5.32;3.28;;;19.20;83.20;19.50;100064.00;;;;4955354;28;118774;-64
2022/08/18 05:05:13;;;;;;;4.03;2.92;;;19.30;83.50;19.50;100062.00;;;;4970474;28;88678;-65
2022/08/18 05:07:45;;;;;;;5.93;3.67;;;19.30;83.50;19.60;100064.00;;;;4955945;28;109859;-65
2022/08/18 05:10:11;;;;;;;3.35;3.05;;;19.40;83.70;19.60;100058.00;;;;4956581;28;87796;-62
2022/08/18 05:12:41;;;;;;;4.50;4.07;;;19.40;83.70;19.70;100059.00;;;;4955134;28;88527;-64
2022/08/18 05:15:08;;;;;;;7.18;3.45;;;19.40;83.80;19.70;100060.00;;;;4955333;28;88882;-65
2022/08/18 05:17:38;;;;;;;3.13;2.83;;;19.50;84.20;19.80;100077.00;;;;4956689;28;87704;-64
2022/08/18 05:20:08;;;;;;;5.05;3.45;;;19.50;84.60;19.80;100076.00;;;;4957258;28;87915;-64
2022/08/18 05:22:42;;;;;;;4.60;3.75;;;19.60;84.60;19.90;100067.00;;;;4955473;28;104908;-64
2022/08/18 05:25:10;;;;;;;4.00;3.47;;;19.70;84.60;20.00;100069.00;;;;4969884;28;87746;-64
2022/08/18 05:27:41;;;;;;;7.90;3.28;;;19.80;84.50;20.10;100082.00;;;;4936091;28;87903;-65
2022/08/18 05:30:08;;;;;;;5.00;3.55;;;19.90;84.50;20.30;100079.00;;;;4936618;28;87816;-63
2022/08/18 05:32:40;;;;;;;3.78;3.42;;;20.00;84.30;20.50;100080.00;;;;4944749;28;105451;-64
2022/08/18 05:35:35;;;;;;;4.13;2.85;;;20.10;84.00;20.60;100087.00;;;;4955662;28;88167;-65
2022/08/18 05:38:25;;;;;;;4.95;4.20;;;20.40;83.60;20.90;100091.00;;;;4953879;28;88160;-64
2022/08/18 05:41:05;;;;;;;4.43;3.80;;;20.60;83.00;21.00;100092.00;;;;4955420;28;88924;-64
2022/08/18 05:43:31;;;;;;;3.92;2.58;;;20.80;82.30;21.30;100082.00;;;;4955035;28;101796;-65
2022/08/18 05:45:58;;;;;;;3.83;2.80;;;20.90;81.80;21.50;100089.00;;;;4955076;28;111701;-65
2022/08/18 05:48:24;;;;;;;4.07;3.75;;;21.10;81.20;21.70;100084.00;;;;4952233;28;110247;-64
2022/08/18 05:50:50;;;;;;;3.78;3.25;;;21.30;80.50;21.90;100092.00;;;;4954854;28;107095;-64
2022/08/18 05:53:18;;;;;;;3.03;2.72;;;21.50;79.90;22.10;100093.00;;;;4954200;28;118748;-64
2022/08/18 05:58:44;;;;;;;3.72;2.63;;;22.00;78.70;22.70;100093.00;;;;4955316;28;87002;-65
2022/08/18 06:01:21;;;;;;;2.63;2.42;;;22.30;77.70;22.90;100094.00;;;;4955895;28;95662;-65
2022/08/18 06:03:53;;;;;;;4.30;2.75;;;22.50;76.90;23.20;100092.00;;;;4953876;28;108434;-65
2022/08/18 06:06:24;;;;;;;2.72;2.47;;;22.70;76.30;23.40;100089.00;;;;4969493;28;88641;-65
2022/08/18 06:09:13;;;;;;;3.92;2.70;;;23.00;75.60;23.70;100085.00;;;;4970324;28;87790;-65
2022/08/18 06:11:38;;;;;;;2.50;2.30;;;23.30;74.60;23.90;100092.00;;;;4953690;28;88173;-65
2022/08/18 06:14:05;;;;;;;3.45;2.03;;;23.50;73.40;24.10;100097.00;;;;4969167;28;117082;-65
2022/08/18 06:17:04;;;;;;;6.05;2.35;;;23.70;72.50;24.40;100098.00;;;;4954464;28;117566;-65
2022/08/18 06:19:45;;;;;;;2.20;2.00;;;24.00;71.60;24.60;100090.00;;;;4955375;28;87696;-65
2022/08/18 06:22:56;;;;;;;3.33;1.98;;;24.30;71.10;25.00;100100.00;;;;4955091;28;87927;-65
2022/08/18 06:25:56;;;;;;;4.20;2.42;;;24.60;70.10;25.30;100089.00;;;;4941924;28;87325;-65
2022/08/18 06:28:22;;;;;;;3.47;2.58;;;24.90;68.90;25.60;100107.00;;;;4944149;28;88012;-65
2022/08/18 06:31:16;;;;;;;5.28;2.35;;;25.20;67.60;26.00;100106.00;;;;4953861;28;110423;-65
2022/08/18 06:34:16;;;;;;;2.42;2.10;;;25.60;67.00;26.40;100101.00;;;;4968508;28;97126;-66
2022/08/18 06:37:05;;;;;;;3.08;2.65;;;25.90;65.30;26.80;100103.00;;;;4952713;28;98438;-65
2022/08/18 06:39:41;;;;;;;5.10;2.25;;;26.40;64.10;27.20;100104.00;;;;4952114;28;104290;-66
2022/08/18 06:42:07;;;;;;;2.72;2.25;;;26.70;63.00;27.60;100111.00;;;;4952300;28;101758;-65
2022/08/18 06:44:50;;;;;;;2.90;2.45;;;27.10;61.80;27.90;100107.00;;;;4967894;28;109477;-65
2022/08/18 06:47:58;;;;;;;2.20;1.98;;;27.50;60.80;28.30;100105.00;;;;4968902;28;87912;-65
2022/08/18 06:50:33;;;;;;;2.95;2.60;;;27.90;59.80;28.70;100108.00;;;;4951145;28;88087;-65
2022/08/18 06:53:05;;;;;;;2.92;2.40;;;28.30;58.90;29.00;100098.00;;;;4947101;28;102402;-65
2022/08/18 06:55:48;;;;;;;3.00;2.50;;;28.60;58.00;29.40;100100.00;;;;4954653;28;87718;-66
2022/08/18 06:58:16;;;;;;;1.75;1.65;;;29.00;57.20;29.70;100101.00;;;;4953905;28;108473;-65
2022/08/18 07:00:57;;;;;;;2.83;2.42;;;29.30;56.40;30.00;100103.00;;;;4954358;28;89113;-65
2022/08/18 07:03:46;;;;;;;2.67;1.83;;;29.60;55.80;30.30;100104.00;;;;4951573;28;88793;-65
2022/08/18 07:06:21;;;;;;;2.50;1.55;;;29.90;55.00;30.70;100107.00;;;;4954323;28;99418;-65
2022/08/18 07:08:50;;;;;;;2.53;1.55;;;30.20;53.30;30.90;100104.00;;;;4952950;28;117267;-65
2022/08/18 07:11:33;;;;;;;2.80;1.83;;;30.50;52.30;31.20;100110.00;;;;4955052;28;91313;-65
2022/08/18 07:14:21;;;;;;;2.08;1.63;;;30.80;51.90;31.60;100114.00;;;;4953719;28;108054;-66
2022/08/18 07:16:47;;;;;;;2.25;2.05;;;31.10;51.10;31.80;100115.00;;;;4954568;28;87798;-64
2022/08/18 07:19:19;;;;;;;3.85;2.13;;;31.40;50.60;32.10;100119.00;;;;4968426;28;117029;-64
2022/08/18 07:22:00;;;;;;;3.80;2.40;;;31.70;50.00;32.20;100114.00;;;;4954795;28;87819;-64
2022/08/18 07:24:43;;;;;;;2.75;1.83;;;31.80;49.20;32.40;100114.00;;;;4968897;28;102415;-64
2022/08/18 07:27:16;;;;;;;2.63;1.77;;;32.10;48.60;32.60;100119.00;;;;4953908;28;88772;-64
2022/08/18 07:30:06;;;;;;;2.80;2.13;;;32.20;48.10;32.80;100109.00;;;;4954294;28;88857;-64
2022/08/18 07:32:58;;;;;;;3.28;1.90;;;32.40;47.70;33.10;100114.00;;;;4951117;28;88613;-64
2022/08/18 07:35:34;;;;;;;2.85;1.95;;;32.70;47.00;33.30;100109.00;;;;4936875;28;88052;-65
2022/08/18 07:38:16;;;;;;;3.25;1.98;;;32.90;46.40;33.50;100116.00;;;;4958126;28;88058;-64
2022/08/18 07:41:06;;;;;;;1.83;1.45;;;33.10;45.70;33.70;100106.00;;;;4971685;28;88697;-64
2022/08/18 07:43:59;;;;;;;3.45;1.98;;;33.30;45.30;33.90;100107.00;;;;4972105;28;88006;-64
2022/08/18 07:46:41;;;;;;;2.95;2.10;;;33.60;44.60;34.00;100111.00;;;;4973041;28;88528;-64
2022/08/18 07:49:07;;;;;;;1.90;1.70;;;33.70;44.00;34.20;100118.00;;;;4965764;28;87819;-64
2022/08/18 07:51:49;;;;;;;2.60;1.85;;;33.90;43.90;34.40;100115.00;;;;4956833;28;117642;-64
2022/08/18 07:54:30;;;;;;;2.30;1.70;;;34.00;43.30;34.50;100120.00;;;;4956183;28;109260;-64
2022/08/18 07:57:23;;;;;;;2.20;1.85;;;34.20;43.00;34.70;100124.00;;;;4957506;28;87723;-64
2022/08/18 08:00:23;;;;;;;2.10;1.75;;;34.40;42.50;35.00;100120.00;;;;4955591;28;87689;-65
2022/08/18 08:03:36;;;;;;;2.30;1.52;;;34.60;42.30;35.30;100113.00;;;;4957157;28;89558;-66
2022/08/18 08:06:18;;;;;;;2.22;1.50;;;35.00;42.00;35.60;100115.00;;;;4955288;28;87719;-65
2022/08/18 08:09:10;;;;;;;1.55;1.40;;;35.20;41.30;35.90;100119.00;;;;4957236;28;87905;-66
2022/08/18 08:12:04;;;;;;;1.38;1.27;;;35.40;40.80;36.00;100121.00;;;;4957810;28;87698;-66
2022/08/18 08:14:43;;;;;;;3.13;2.20;;;35.60;40.20;36.20;100122.00;;;;4935819;28;87467;-66
2022/08/18 08:17:31;;;;;;;3.30;1.85;;;35.80;40.20;36.40;100121.00;;;;4954980;28;88159;-66
2022/08/18 08:20:13;;;;;;;3.75;1.70;;;36.00;39.90;36.70;100118.00;;;;4955001;28;87697;-66
2022/08/18 08:23:28;;;;;;;2.08;1.80;;;36.20;39.40;37.00;100127.00;;;;4971877;28;91327;-66
2022/08/18 08:26:14;;;;;;;1.92;1.83;;;36.50;38.80;37.30;100124.00;;;;4953017;28;88003;-64
2022/08/18 08:29:14;;;;;;;3.90;1.95;;;36.80;38.50;37.50;100126.00;;;;4971257;28;105013;-64
2022/08/18 08:31:53;;;;;;;2.10;1.80;;;37.00;38.00;37.80;100123.00;;;;4957352;28;87868;-64
2022/08/18 08:34:28;;;;;;;2.92;1.80;;;37.30;37.60;38.00;100122.00;;;;4971836;28;96671;-64
2022/08/18 08:37:07;;;;;;;2.70;1.40;;;37.50;37.20;38.20;100114.00;;;;4957915;28;89229;-64
2022/08/18 08:39:43;;;;;;;2.33;1.50;;;37.70;36.80;38.40;100111.00;;;;4956627;28;87709;-65
2022/08/18 08:42:32;;;;;;;2.78;1.42;;;37.90;36.30;38.60;100113.00;;;;4971400;28;86964;-63
2022/08/18 08:45:06;;;;;;;1.63;1.50;;;38.10;36.00;38.80;100119.00;;;;4958479;28;87573;-64
2022/08/18 08:47:56;;;;;;;2.53;1.63;;;38.30;34.90;38.90;100118.00;;;;4952216;28;108331;-63
2022/08/18 08:50:27;;;;;;;1.48;1.38;;;38.40;34.90;39.00;100111.00;;;;4950567;28;88769;-63
2022/08/18 08:53:06;;;;;;;1.48;1.20;;;38.50;34.60;39.00;100111.00;;;;4945338;28;93714;-63
2022/08/18 08:55:44;;;;;;;1.55;1.13;;;38.50;34.30;39.00;100105.00;;;;4947502;28;88335;-63
2022/08/18 08:58:46;;;;;;;2.03;1.33;;;38.60;33.80;39.00;100103.00;;;;4970210;28;109878;-66
2022/08/18 09:01:39;;;;;;;2.10;1.67;;;38.60;33.10;38.80;100101.00;;;;4955161;28;88515;-66
2022/08/18 09:04:49;;;;;;;2.85;1.58;;;38.50;32.60;38.60;100092.00;;;;4970488;28;102494;-65
2022/08/18 09:08:01;;;;;;;2.25;1.45;;;38.30;33.20;38.50;100080.00;;;;4970736;28;102161;-65
2022/08/18 09:10:56;;;;;;;2.95;1.45;;;38.10;33.70;38.30;100083.00;;;;4953659;28;88365;-65
2022/08/18 09:13:40;;;;;;;1.38;1.05;;;38.00;33.90;38.30;100094.00;;;;4956052;28;87834;-64
2022/08/18 09:16:28;;;;;;;1.65;1.20;;;37.90;34.20;38.20;100084.00;;;;4956386;28;93855;-66
2022/08/18 09:19:28;;;;;;;3.47;1.58;;;37.80;34.10;38.20;100076.00;;;;4956351;28;88804;-65
2022/08/18 09:22:21;;;;;;;1.85;1.20;;;37.80;34.10;38.20;100070.00;;;;4970737;28;87876;-64
2022/08/18 09:24:52;;;;;;;1.48;0.95;;;37.70;32.30;38.10;100081.00;;;;4948393;28;88020;-64
2022/08/18 09:27:44;;;;;;;2.95;1.70;;;37.60;31.60;38.00;100080.00;;;;4956826;28;87776;-66
2022/08/18 09:30:48;;;;;;;2.55;1.65;;;37.50;32.20;38.10;100089.00;;;;4956183;28;87732;-66
2022/08/18 09:33:39;;;;;;;1.92;1.10;;;37.50;32.70;38.30;100077.00;;;;4955304;28;87967;-65
2022/08/18 09:36:28;;;;;;;2.20;1.20;;;37.60;32.80;38.50;100077.00;;;;4956395;28;88653;-65
2022/08/18 09:42:53;;;;;;;2.20;1.67;;;37.90;31.80;38.50;100070.00;;;;4932042;28;87774;-64
2022/08/18 09:45:31;;;;;;;7.00;1.70;;;37.90;31.40;38.40;100069.00;;;;4949919;28;108065;-64
2022/08/18 09:48:35;;;;;;;3.30;1.77;;;37.80;31.70;38.50;100059.00;;;;4949104;28;88861;-65
2022/08/18 09:51:17;;;;;;;2.00;1.60;;;37.90;31.50;38.60;100061.00;;;;4955110;28;87870;-65
2022/08/18 09:54:08;;;;;;;2.00;1.58;;;37.90;31.60;38.90;100056.00;;;;4955574;28;88521;-64
2022/08/18 09:56:49;;;;;;;1.42;1.17;;;38.10;32.10;39.30;100065.00;;;;4956580;28;87843;-65
2022/08/18 09:59:33;;;;;;;1.50;1.40;;;38.40;32.10;39.70;100060.00;;;;4954481;28;117247;-64
2022/08/18 10:02:27;;;;;;;2.70;1.30;;;38.80;30.90;39.70;100074.00;;;;4955509;28;109765;-64
2022/08/18 10:05:18;;;;;;;1.52;1.42;;;38.90;31.00;39.70;100056.00;;;;4952200;28;95039;-64
2022/08/18 10:08:26;;;;;;;1.85;1.60;;;39.00;31.40;39.70;100052.00;;;;4955599;28;88091;-64
2022/08/18 10:11:21;;;;;;;1.65;1.50;;;39.00;31.20;39.70;100041.00;;;;4954286;28;106427;-64
2022/08/18 10:14:29;;;;;;;2.67;1.83;;;39.00;31.70;40.00;100045.00;;;;4952326;28;101908;-64
2022/08/18 10:17:07;;;;;;;3.70;1.73;;;39.20;31.90;40.30;100037.00;;;;4954733;28;89841;-64
2022/08/18 10:19:59;;;;;;;1.58;1.48;;;39.40;31.70;40.50;100034.00;;;;4954461;28;97541;-64
2022/08/18 10:22:42;;;;;;;2.53;1.88;;;39.60;31.60;40.60;100032.00;;;;4954892;28;88465;-63
2022/08/18 10:25:10;;;;;;;1.42;1.23;;;39.80;31.50;40.70;100035.00;;;;4936647;28;87802;-63
2022/08/18 10:27:45;;;;;;;2.55;1.55;;;39.90;31.20;40.70;100029.00;;;;4955449;28;87950;-65
2022/08/18 10:30:35;;;;;;;1.65;1.55;;;39.90;30.70;40.10;100027.00;;;;4954719;28;87954;-63
2022/08/18 10:33:07;;;;;;;2.22;1.58;;;39.70;29.70;39.60;100025.00;;;;4955130;28;87818;-64
2022/08/18 10:35:35;;;;;;;2.38;1.85;;;39.20;30.30;39.50;100028.00;;;;4953518;28;94988;-64
2022/08/18 10:38:42;;;;;;;2.25;1.42;;;38.90;30.60;39.30;100017.00;;;;4955347;28;87999;-64
2022/08/18 10:41:30;;;;;;;2.30;1.60;;;38.80;30.20;39.00;100030.00;;;;4954261;28;88854;-64
2022/08/18 10:43:59;;;;;;;1.55;1.15;;;38.50;30.20;38.70;100034.00;;;;4953870;28;88703;-64
2022/08/18 10:46:31;;;;;;;2.20;1.70;;;38.20;30.60;38.60;100029.00;;;;4954854;28;87900;-66
2022/08/18 10:49:24;;;;;;;1.52;1.40;;;38.00;31.00;38.60;100022.00;;;;4952735;28;87881;-65
2022/08/18 10:52:26;;;;;;;4.60;1.80;;;38.00;31.10;38.50;100027.00;;;;4967666;28;88852;-63
2022/08/18 10:55:19;;;;;;;1.88;1.60;;;38.00;30.90;38.30;100033.00;;;;4952832;28;87841;-64
2022/08/18 10:57:53;;;;;;;1.38;1.25;;;37.80;30.60;38.10;100026.00;;;;4943949;28;88233;-64
2022/08/18 11:00:21;;;;;;;1.10;0.85;;;37.60;30.70;37.90;100036.00;;;;4935321;28;88923;-64
2022/08/18 11:03:08;;;;;;;1.60;1.30;;;37.50;30.40;37.50;100031.00;;;;4937677;28;88283;-64
2022/08/18 11:05:34;;;;;;;1.05;1.00;;;37.20;30.30;37.40;100028.00;;;;4949797;28;87758;-65
2022/08/18 11:08:04;;;;;;;1.23;0.93;;;36.90;30.90;37.30;100031.00;;;;4941100;28;111756;-64
2022/08/18 11:10:47;;;;;;;1.77;1.13;;;36.80;30.60;37.20;100026.00;;;;4954625;28;100299;-64
2022/08/18 11:13:29;;;;;;;1.98;1.33;;;36.70;31.00;37.10;100012.00;;;;4955892;28;87813;-64
2022/08/18 11:16:17;;;;;;;1.35;1.23;;;36.60;31.50;37.00;100009.00;;;;4955970;28;87867;-64
2022/08/18 11:18:49;;;;;;;2.78;1.75;;;36.50;31.90;37.00;100015.00;;;;4958206;28;87838;-64
2022/08/18 11:21:38;;;;;;;1.83;1.33;;;36.40;32.10;36.80;100017.00;;;;4956585;28;87948;-64
2022/08/18 11:24:06;;;;;;;2.08;1.90;;;36.30;32.50;36.70;100014.00;;;;4957566;28;89113;-63
2022/08/18 11:26:44;;;;;;;2.42;1.80;;;36.20;32.70;36.50;100021.00;;;;4957700;28;88895;-63
2022/08/18 11:29:20;;;;;;;2.75;1.45;;;36.10;32.90;36.30;100021.00;;;;4973304;28;87048;-64
2022/08/18 11:31:52;;;;;;;3.67;2.03;;;35.80;32.80;36.10;100027.00;;;;4958502;28;87692;-63
2022/08/18 11:34:28;;;;;;;2.00;1.55;;;35.70;33.10;36.00;100022.00;;;;4957159;28;89100;-64
2022/08/18 11:37:10;;;;;;;9.43;1.95;;;35.50;33.20;35.90;100030.00;;;;4955668;28;88737;-64
2022/08/18 11:39:49;;;;;;;2.20;1.95;;;35.40;33.40;35.70;100034.00;;;;4955641;28;88462;-63